Time;durP1;ratioP1;P1;durP2;ratioP2;P2;SDS_P1;SDS_P2;PMS_P1;PMS_P2;Temp;Humidity;BMP_temperature;BMP_pressure;BME280_temperature;BME280_humidity;BME280_pressure;Samples;Min_cycle;Max_cycle;Signal;HPM_P1;HPM_P2
2022/06/03 00:02:13;;;;;;;23.75;14.90;;;20.60;99.90;;;;;;4990208;28;20061;-73
2022/06/03 00:05:00;;;;;;;21.58;14.50;;;20.60;99.90;;;;;;4989656;28;20480;-72
2022/06/03 00:08:00;;;;;;;21.70;14.68;;;20.60;99.90;;;;;;4989801;28;20038;-72
2022/06/03 00:10:43;;;;;;;21.52;14.02;;;20.50;99.90;;;;;;4989960;28;20621;-73
2022/06/03 00:13:12;;;;;;;19.02;12.60;;;20.50;99.90;;;;;;4989756;28;20464;-73
2022/06/03 00:16:07;;;;;;;19.92;12.48;;;20.50;99.90;;;;;;4989969;28;20042;-73
2022/06/03 00:18:51;;;;;;;20.50;13.23;;;20.50;99.90;;;;;;4989976;28;20109;-73
2022/06/03 00:21:37;;;;;;;19.45;12.75;;;20.30;99.90;;;;;;4992284;28;20389;-73
2022/06/03 00:24:12;;;;;;;18.88;13.52;;;20.30;99.90;;;;;;4980312;28;20019;-73
2022/06/03 00:26:43;;;;;;;28.10;13.32;;;20.20;99.90;;;;;;4992093;28;20041;-71
2022/06/03 00:29:12;;;;;;;21.93;14.53;;;20.20;99.90;;;;;;4991687;28;20029;-70
2022/06/03 00:32:16;;;;;;;19.73;13.60;;;20.10;99.90;;;;;;4992100;28;20069;-73
2022/06/03 00:35:00;;;;;;;22.42;13.77;;;20.20;99.90;;;;;;4991853;28;20444;-73
2022/06/03 00:37:36;;;;;;;18.67;13.32;;;20.20;99.90;;;;;;4991856;28;20019;-73
2022/06/03 00:40:37;;;;;;;19.75;13.50;;;20.20;99.90;;;;;;4992175;28;20408;-72
2022/06/03 00:43:22;;;;;;;22.88;13.88;;;20.20;99.90;;;;;;4991682;28;20046;-71
2022/06/03 00:46:12;;;;;;;17.33;13.18;;;20.20;99.90;;;;;;4992201;28;20112;-73
2022/06/03 00:48:52;;;;;;;23.85;14.32;;;20.10;99.90;;;;;;4992133;28;20065;-72
2022/06/03 00:51:21;;;;;;;19.25;12.73;;;20.00;99.90;;;;;;4991616;28;20110;-72
2022/06/03 00:53:59;;;;;;;22.40;13.25;;;20.00;99.90;;;;;;4991958;28;20026;-73
2022/06/03 00:56:44;;;;;;;20.52;13.82;;;20.00;99.90;;;;;;4991629;28;20061;-72
2022/06/03 00:59:25;;;;;;;20.38;13.88;;;19.90;99.90;;;;;;4991817;28;20042;-72
2022/06/03 01:02:14;;;;;;;21.90;13.90;;;20.00;99.90;;;;;;4992230;28;20052;-71
2022/06/03 01:05:08;;;;;;;22.92;14.15;;;19.90;99.90;;;;;;4992003;28;20361;-71
2022/06/03 01:07:42;;;;;;;21.30;13.82;;;19.90;99.90;;;;;;4991794;28;20111;-73
2022/06/03 01:10:14;;;;;;;24.08;13.75;;;19.90;99.90;;;;;;4991779;28;20084;-71
2022/06/03 01:12:43;;;;;;;22.40;13.90;;;19.90;99.90;;;;;;4991885;28;20045;-72
2022/06/03 01:15:16;;;;;;;21.35;13.13;;;20.00;99.90;;;;;;4991629;28;20433;-73
2022/06/03 01:18:00;;;;;;;20.23;14.07;;;20.00;99.90;;;;;;4991975;28;20046;-70
2022/06/03 01:21:06;;;;;;;20.25;13.35;;;20.00;99.90;;;;;;4991818;28;20022;-72
2022/06/03 01:24:01;;;;;;;21.40;14.63;;;20.10;99.90;;;;;;4991797;28;20038;-72
2022/06/03 01:27:05;;;;;;;23.75;16.13;;;20.00;99.90;;;;;;4991864;28;20481;-72
2022/06/03 01:30:16;;;;;;;23.65;15.18;;;19.90;99.90;;;;;;4995563;28;20022;-71
2022/06/03 01:32:47;;;;;;;25.40;16.30;;;19.80;99.90;;;;;;4995347;28;20026;-70
2022/06/03 01:35:28;;;;;;;20.60;16.13;;;19.60;99.90;;;;;;4995324;28;20030;-74
2022/06/03 01:38:07;;;;;;;22.70;15.75;;;19.50;99.90;;;;;;4995550;28;20022;-73
2022/06/03 01:41:00;;;;;;;27.40;18.00;;;19.40;99.90;;;;;;4995025;28;20113;-73
2022/06/03 01:43:58;;;;;;;25.42;16.05;;;19.40;99.90;;;;;;4994774;28;20449;-72
2022/06/03 01:46:31;;;;;;;23.73;16.17;;;19.40;99.90;;;;;;4995195;28;20843;-73
2022/06/03 01:49:43;;;;;;;22.13;16.23;;;19.40;99.90;;;;;;4995442;28;20109;-71
2022/06/03 01:52:45;;;;;;;21.77;15.27;;;19.40;99.90;;;;;;4945497;29;20421;-73
2022/06/03 01:55:41;;;;;;;25.67;17.38;;;19.30;99.90;;;;;;4954286;29;20039;-73
2022/06/03 01:58:40;;;;;;;26.90;17.60;;;19.20;99.90;;;;;;4953764;29;20031;-73
2022/06/03 02:01:23;;;;;;;24.00;15.43;;;19.20;99.90;;;;;;4967342;28;20104;-73
2022/06/03 02:03:55;;;;;;;23.13;16.83;;;19.30;99.90;;;;;;4954613;29;20070;-72
2022/06/03 02:06:26;;;;;;;27.17;17.13;;;19.40;99.90;;;;;;4954455;29;20202;-73
2022/06/03 02:09:13;;;;;;;25.25;17.23;;;19.40;99.90;;;;;;4957089;28;20417;-72
2022/06/03 02:11:57;;;;;;;21.63;16.33;;;19.50;99.90;;;;;;4950490;28;20038;-73
2022/06/03 02:14:46;;;;;;;22.98;16.38;;;19.50;99.90;;;;;;4964243;28;20625;-73
2022/06/03 02:17:27;;;;;;;23.40;17.27;;;19.60;99.90;;;;;;4960876;28;20477;-72
2022/06/03 02:20:08;;;;;;;25.40;16.20;;;19.60;99.90;;;;;;4972753;28;20513;-74
2022/06/03 02:22:39;;;;;;;26.30;17.30;;;19.60;99.90;;;;;;4972784;28;20047;-72
2022/06/03 02:25:50;;;;;;;20.63;15.57;;;19.60;99.90;;;;;;4966614;28;20037;-73
2022/06/03 02:28:34;;;;;;;23.95;17.23;;;19.70;99.90;;;;;;4960234;28;20389;-72
2022/06/03 02:31:25;;;;;;;27.55;17.05;;;19.60;99.90;;;;;;4994347;28;20026;-73
2022/06/03 02:34:03;;;;;;;24.45;15.38;;;19.50;99.90;;;;;;4994311;28;20077;-72
2022/06/03 02:37:05;;;;;;;27.90;16.65;;;19.50;99.90;;;;;;4994569;28;20030;-73
2022/06/03 02:39:47;;;;;;;22.85;14.90;;;19.50;99.90;;;;;;4994231;28;20540;-73
2022/06/03 02:42:27;;;;;;;24.13;15.60;;;19.50;99.90;;;;;;4994167;28;20026;-71
2022/06/03 02:45:03;;;;;;;19.63;14.48;;;19.50;99.90;;;;;;4986315;28;20074;-71
2022/06/03 02:48:00;;;;;;;21.20;13.57;;;19.50;99.90;;;;;;4994329;28;20160;-73
2022/06/03 02:50:57;;;;;;;23.30;14.73;;;19.60;99.90;;;;;;4994283;28;20089;-72
2022/06/03 02:53:39;;;;;;;22.95;15.68;;;19.70;99.90;;;;;;4994137;28;20038;-72
2022/06/03 02:56:16;;;;;;;29.05;14.73;;;19.80;99.90;;;;;;4993851;28;20105;-73
2022/06/03 02:59:21;;;;;;;22.58;14.80;;;19.80;99.90;;;;;;4993514;28;20035;-73
2022/06/03 03:02:01;;;;;;;22.10;14.55;;;19.90;99.90;;;;;;4991585;28;20048;-72
2022/06/03 03:04:57;;;;;;;20.85;14.05;;;19.90;99.90;;;;;;5005582;28;20038;-72
2022/06/03 03:07:43;;;;;;;21.08;13.77;;;19.90;99.90;;;;;;4991555;28;20543;-73
2022/06/03 03:10:45;;;;;;;21.92;13.05;;;20.00;99.90;;;;;;4991219;28;20044;-73
2022/06/03 03:13:21;;;;;;;18.77;13.40;;;20.00;99.90;;;;;;4989583;28;20453;-74
2022/06/03 03:16:09;;;;;;;19.73;12.48;;;20.00;99.90;;;;;;4985994;28;20039;-70
2022/06/03 03:18:54;;;;;;;20.38;13.43;;;19.90;99.90;;;;;;4991424;28;20408;-73
2022/06/03 03:21:34;;;;;;;20.58;13.88;;;19.90;99.90;;;;;;4991186;28;20034;-71
2022/06/03 03:24:33;;;;;;;21.90;13.00;;;19.90;99.90;;;;;;4990552;28;20038;-72
2022/06/03 03:27:28;;;;;;;21.35;14.00;;;19.90;99.90;;;;;;4990525;28;20436;-72
2022/06/03 03:30:42;;;;;;;23.40;13.05;;;19.90;99.90;;;;;;4981035;28;20468;-71
2022/06/03 03:33:43;;;;;;;22.67;13.23;;;19.90;99.90;;;;;;4924836;29;20071;-73
2022/06/03 03:36:30;;;;;;;20.75;14.38;;;19.80;99.90;;;;;;4927463;29;20028;-72
2022/06/03 03:39:25;;;;;;;29.33;15.27;;;19.90;99.90;;;;;;4931930;29;20035;-69
2022/06/03 03:42:23;;;;;;;23.65;16.63;;;19.90;99.90;;;;;;4932674;29;20407;-73
2022/06/03 03:45:01;;;;;;;31.20;16.08;;;20.10;99.90;;;;;;4913077;29;20040;-71
2022/06/03 03:47:42;;;;;;;25.30;16.42;;;20.30;99.90;;;;;;4913780;29;20048;-72
2022/06/03 03:51:01;;;;;;;23.38;14.90;;;20.40;99.90;;;;;;4913432;29;20039;-66
2022/06/03 03:53:52;;;;;;;24.35;16.45;;;20.50;99.90;;;;;;4890488;29;20087;-72
2022/06/03 03:56:36;;;;;;;28.33;14.80;;;20.60;99.90;;;;;;4898728;29;20037;-72
2022/06/03 03:59:39;;;;;;;21.52;14.98;;;20.70;99.90;;;;;;4913038;29;20423;-73
2022/06/03 04:02:39;;;;;;;22.17;15.13;;;20.70;99.90;;;;;;4907802;29;20071;-65
2022/06/03 04:05:33;;;;;;;30.70;16.90;;;20.90;99.90;;;;;;4852854;29;20493;-66
2022/06/03 04:08:35;;;;;;;26.08;16.58;;;21.00;99.90;;;;;;4856745;29;20044;-70
2022/06/03 04:11:16;;;;;;;19.08;13.43;;;21.00;99.90;;;;;;4891096;29;20131;-74
2022/06/03 04:14:30;;;;;;;22.55;13.35;;;20.90;99.90;;;;;;4894252;29;21685;-65
2022/06/03 04:17:10;;;;;;;19.85;12.50;;;21.00;99.90;;;;;;4889572;29;20112;-69
2022/06/03 04:19:35;;;;;;;19.92;12.18;;;21.30;99.90;;;;;;4887383;29;20045;-74
2022/06/03 04:22:33;;;;;;;19.73;11.38;;;21.70;99.90;;;;;;4904850;29;20048;-67
2022/06/03 04:25:35;;;;;;;17.70;11.38;;;22.20;99.90;;;;;;4913065;29;20123;-65
2022/06/03 04:28:04;;;;;;;;;;;22.80;99.90;;;;;;4913224;29;20127;-66
2022/06/03 04:30:51;;;;;;;20.50;11.60;;;22.60;99.90;;;;;;4912019;29;19942;-74
2022/06/03 04:33:43;;;;;;;16.63;11.20;;;22.70;99.90;;;;;;4912768;29;20112;-74
2022/06/03 04:36:27;;;;;;;20.77;12.80;;;22.50;99.90;;;;;;4903201;29;20036;-74
2022/06/03 04:39:26;;;;;;;17.88;11.35;;;22.20;99.90;;;;;;4908942;29;20029;-74
2022/06/03 04:42:11;;;;;;;17.75;11.32;;;22.30;99.90;;;;;;4966625;28;20481;-71
2022/06/03 04:45:01;;;;;;;18.20;12.15;;;22.30;99.90;;;;;;4983469;28;20093;-73
2022/06/03 04:47:27;;;;;;;20.70;12.27;;;21.80;99.90;;;;;;4991862;28;20119;-75
2022/06/03 04:50:08;;;;;;;23.35;13.80;;;21.60;99.90;;;;;;4991455;28;20095;-74
2022/06/03 04:52:43;;;;;;;19.40;12.32;;;21.70;99.90;;;;;;4991596;28;20381;-74
2022/06/03 04:55:43;;;;;;;17.77;12.82;;;21.90;99.90;;;;;;4991326;28;20067;-73
2022/06/03 04:58:42;;;;;;;18.00;10.82;;;21.90;99.90;;;;;;4974377;28;20513;-75
2022/06/03 05:01:28;;;;;;;19.60;12.75;;;21.90;99.90;;;;;;4991711;28;20030;-75
2022/06/03 05:04:18;;;;;;;17.98;12.48;;;21.90;99.90;;;;;;4983349;28;20117;-72
2022/06/03 05:06:44;;;;;;;16.83;11.40;;;22.10;99.90;;;;;;4995282;28;20158;-74
2022/06/03 05:09:48;;;;;;;17.95;11.00;;;22.10;99.90;;;;;;4995745;28;20112;-73
2022/06/03 05:12:57;;;;;;;17.10;11.27;;;22.20;99.90;;;;;;4994517;28;20073;-75
2022/06/03 05:16:10;;;;;;;19.33;11.35;;;22.30;99.90;;;;;;4983807;28;20069;-74
2022/06/03 05:19:05;;;;;;;;;;;22.40;99.90;;;;;;4954157;28;20682;-74
2022/06/03 05:21:37;;;;;;;19.98;13.30;;;22.20;99.90;;;;;;4895728;29;19915;-74
2022/06/03 05:24:40;;;;;;;22.90;12.98;;;22.10;99.90;;;;;;4896146;29;20551;-71
2022/06/03 05:27:23;;;;;;;;;;;22.10;99.90;;;;;;4897314;29;20040;-73
2022/06/03 05:30:08;;;;;;;15.88;11.27;;;22.20;99.90;;;;;;4897139;29;19916;-75
2022/06/03 05:32:57;;;;;;;20.20;12.25;;;22.10;99.90;;;;;;4889854;29;20477;-74
2022/06/03 05:36:13;;;;;;;23.00;11.57;;;22.10;99.90;;;;;;4893925;29;20032;-74
2022/06/03 05:39:22;;;;;;;14.20;9.90;;;22.20;99.90;;;;;;4890874;29;20415;-72
2022/06/03 05:42:27;;;;;;;16.50;10.30;;;22.50;99.90;;;;;;4840989;29;20501;-73
2022/06/03 05:45:23;;;;;;;15.48;10.25;;;23.00;99.90;;;;;;4841258;29;20202;-73
2022/06/03 05:47:52;;;;;;;14.77;10.32;;;23.30;99.90;;;;;;4841239;29;20054;-72
2022/06/03 05:50:58;;;;;;;16.48;9.35;;;23.60;99.90;;;;;;4875011;29;20248;-72
2022/06/03 05:53:52;;;;;;;17.23;9.13;;;23.70;99.90;;;;;;4822442;29;20153;-72
2022/06/03 05:57:03;;;;;;;15.98;9.77;;;24.30;99.90;;;;;;4822703;29;20105;-71
2022/06/03 05:59:50;;;;;;;15.82;8.48;;;24.30;99.90;;;;;;4831983;29;20073;-73
2022/06/03 06:02:24;;;;;;;11.93;7.65;;;24.60;99.90;;;;;;4840713;29;20488;-73
2022/06/03 06:05:02;;;;;;;13.45;8.02;;;24.50;99.90;;;;;;4838243;29;20464;-73
2022/06/03 06:07:34;;;;;;;12.43;8.13;;;;;;;;;;4840614;29;20053;-71
2022/06/03 06:10:28;;;;;;;13.23;6.82;;;25.00;99.90;;;;;;4840760;29;20045;-72
2022/06/03 06:12:53;;;;;;;73.88;52.97;;;25.20;99.90;;;;;;4840247;29;20061;-73
2022/06/03 06:15:51;;;;;;;9.75;6.40;;;25.60;99.90;;;;;;4840465;29;20037;-71
2022/06/03 06:18:41;;;;;;;8.55;6.20;;;25.70;99.90;;;;;;4862048;29;20127;-72
2022/06/03 06:21:19;;;;;;;10.30;6.72;;;26.00;99.90;;;;;;4890933;29;20098;-73
2022/06/03 06:24:06;;;;;;;74.75;51.53;;;26.20;99.90;;;;;;4908079;28;20090;-71
2022/06/03 06:26:45;;;;;;;11.00;7.68;;;26.00;99.90;;;;;;4993980;28;20464;-73
2022/06/03 06:29:31;;;;;;;12.02;6.78;;;25.80;99.90;;;;;;4993933;28;20023;-73
2022/06/03 06:32:25;;;;;;;12.70;8.50;;;25.90;99.90;;;;;;4994041;28;20034;-71
2022/06/03 06:34:57;;;;;;;8.15;5.70;;;25.80;99.90;;;;;;4981565;28;20118;-73
2022/06/03 06:38:11;;;;;;;18.10;12.52;;;25.80;99.90;;;;;;4993884;28;20064;-70
2022/06/03 06:40:55;;;;;;;9.55;6.20;;;25.80;99.90;;;;;;4991389;28;20121;-67
2022/06/03 06:43:41;;;;;;;11.27;6.20;;;25.70;99.90;;;;;;4988485;28;20153;-73
2022/06/03 06:46:27;;;;;;;30.60;15.60;;;26.10;99.90;;;;;;4988410;28;20026;-73
2022/06/03 06:49:04;;;;;;;36.53;25.95;;;26.10;99.90;;;;;;4991647;28;20034;-73
2022/06/03 06:51:56;;;;;;;12.65;6.70;;;26.00;99.90;;;;;;4984002;28;20052;-72
2022/06/03 06:54:52;;;;;;;9.23;6.05;;;26.00;99.90;;;;;;4991346;28;20030;-73
2022/06/03 06:57:23;;;;;;;19.73;12.52;;;26.30;99.90;;;;;;4991674;28;20042;-73
2022/06/03 06:59:57;;;;;;;24.85;16.20;;;26.40;99.90;;;;;;4990968;28;20121;-73
2022/06/03 07:02:31;;;;;;;10.05;6.60;;;26.60;99.90;;;;;;4988834;28;20513;-73
2022/06/03 07:05:20;;;;;;;9.68;5.53;;;26.60;99.90;;;;;;5001152;28;20122;-73
2022/06/03 07:07:46;;;;;;;19.73;7.43;;;26.70;99.90;;;;;;4913386;29;20100;-72
2022/06/03 07:10:18;;;;;;;9.98;5.75;;;26.70;99.90;;;;;;4914267;29;20120;-74
2022/06/03 07:13:05;;;;;;;49.47;32.22;;;27.00;99.90;;;;;;4913522;29;20206;-72
2022/06/03 07:16:01;;;;;;;10.98;5.35;;;27.30;99.90;;;;;;4913287;29;20122;-73
2022/06/03 07:22:08;;;;;;;12.57;7.40;;;27.30;99.80;;;;;;4932215;29;20043;-73
2022/06/03 07:24:46;;;;;;;9.93;6.25;;;27.40;99.90;;;;;;4931982;29;20135;-74
2022/06/03 07:27:16;;;;;;;10.20;4.45;;;27.70;99.90;;;;;;4919127;29;20506;-73
2022/06/03 07:29:48;;;;;;;8.00;5.15;;;27.70;99.90;;;;;;4916145;29;20051;-72
2022/06/03 07:32:19;;;;;;;;;;;27.70;99.90;;;;;;4932838;29;20047;-73
2022/06/03 07:34:53;;;;;;;9.15;5.75;;;27.80;98.20;;;;;;4932435;29;19978;-74
2022/06/03 07:37:36;;;;;;;11.25;6.65;;;27.20;99.90;;;;;;4932193;29;20039;-69
2022/06/03 07:40:24;;;;;;;7.65;5.70;;;27.50;99.90;;;;;;4932609;29;20078;-71
2022/06/03 07:42:57;;;;;;;9.35;6.22;;;27.90;99.90;;;;;;4932233;29;20063;-73
2022/06/03 07:45:44;;;;;;;8.52;5.25;;;27.90;99.10;;;;;;4972742;28;20051;-73
2022/06/03 07:48:16;;;;;;;21.95;13.13;;;;;;;;;;4979315;28;20033;-74
2022/06/03 07:50:57;;;;;;;10.05;5.82;;;28.70;98.70;;;;;;4992600;28;20069;-72
2022/06/03 07:53:35;;;;;;;7.50;4.55;;;28.60;99.90;;;;;;4979798;28;20092;-73
2022/06/03 07:56:01;;;;;;;10.70;5.43;;;28.60;99.90;;;;;;4992555;28;20464;-72
2022/06/03 07:58:32;;;;;;;8.52;4.82;;;28.90;95.40;;;;;;4992442;28;20049;-74
2022/06/03 08:00:59;;;;;;;6.07;4.35;;;28.70;97.90;;;;;;4992603;28;20092;-73
2022/06/03 08:03:33;;;;;;;10.30;5.63;;;29.00;97.80;;;;;;4992421;28;20473;-74
2022/06/03 08:06:03;;;;;;;6.97;4.35;;;29.00;92.20;;;;;;4992085;28;20571;-73
2022/06/03 08:11:30;;;;;;;7.97;5.57;;;28.90;91.60;;;;;;4955762;28;20046;-73
2022/06/03 08:13:58;;;;;;;15.00;7.25;;;28.90;90.80;;;;;;4951145;28;20047;-73
2022/06/03 08:16:37;;;;;;;8.13;4.43;;;28.80;91.90;;;;;;4951463;28;20031;-74
2022/06/03 08:19:06;;;;;;;9.63;5.53;;;28.80;95.20;;;;;;4962176;28;20058;-71
2022/06/03 08:21:49;;;;;;;7.60;5.28;;;28.60;92.50;;;;;;4949365;28;20035;-74
2022/06/03 08:24:19;;;;;;;21.88;12.75;;;28.30;92.50;;;;;;4950952;28;20031;-73
2022/06/03 08:26:51;;;;;;;7.50;5.20;;;28.20;96.30;;;;;;4962240;28;20585;-70
2022/06/03 08:29:26;;;;;;;12.23;5.30;;;28.50;94.90;;;;;;4952313;28;20045;-73
2022/06/03 08:31:54;;;;;;;7.78;5.00;;;28.50;93.40;;;;;;4951348;28;20455;-73
2022/06/03 08:34:28;;;;;;;7.75;4.78;;;28.50;93.80;;;;;;4950644;28;20058;-73
2022/06/03 08:36:55;;;;;;;12.27;5.25;;;28.60;92.10;;;;;;4950575;28;20429;-74
2022/06/03 08:39:25;;;;;;;9.00;5.15;;;28.70;92.80;;;;;;4950245;28;20115;-70
2022/06/03 08:42:15;;;;;;;8.05;4.88;;;28.70;91.30;;;;;;4950604;28;20537;-72
2022/06/03 08:45:05;;;;;;;7.05;4.07;;;28.80;89.80;;;;;;4950581;28;20035;-74
2022/06/03 08:47:33;;;;;;;6.50;4.50;;;29.10;93.40;;;;;;4972727;28;20137;-74
2022/06/03 08:50:06;;;;;;;8.23;4.10;;;;;;;;;;4991346;28;20088;-74
2022/06/03 08:52:48;;;;;;;7.00;4.28;;;29.10;91.30;;;;;;4974670;28;20030;-74
2022/06/03 08:55:38;;;;;;;8.00;5.00;;;29.30;90.90;;;;;;4980197;28;20033;-73
2022/06/03 08:58:12;;;;;;;7.40;3.67;;;29.00;90.60;;;;;;4991538;28;20231;-73
2022/06/03 09:00:58;;;;;;;7.25;4.00;;;29.20;93.00;;;;;;4991796;28;20023;-74
2022/06/03 09:03:28;;;;;;;7.13;4.32;;;29.40;91.20;;;;;;4991210;28;20105;-74
2022/06/03 09:06:01;;;;;;;5.40;3.83;;;29.40;90.10;;;;;;4991365;28;20564;-74
2022/06/03 09:08:30;;;;;;;8.73;5.38;;;29.30;90.90;;;;;;5005760;28;20062;-73
2022/06/03 09:11:01;;;;;;;7.40;4.53;;;29.20;91.40;;;;;;4991555;28;20105;-74
2022/06/03 09:13:47;;;;;;;6.87;3.80;;;29.30;88.00;;;;;;4988121;28;20377;-74
2022/06/03 09:16:17;;;;;;;5.22;3.80;;;29.20;90.00;;;;;;4989981;28;20355;-74
2022/06/03 09:18:49;;;;;;;7.00;4.60;;;29.00;91.10;;;;;;4991219;28;20018;-74
2022/06/03 09:21:23;;;;;;;8.70;5.25;;;29.00;90.10;;;;;;4991488;28;20524;-73
2022/06/03 09:24:23;;;;;;;6.22;4.22;;;29.00;93.40;;;;;;4991044;28;20477;-73
2022/06/03 09:26:56;;;;;;;5.68;4.25;;;29.20;92.40;;;;;;4935272;29;20127;-72
2022/06/03 09:29:22;;;;;;;6.60;3.55;;;29.10;90.20;;;;;;4949685;29;20067;-74
2022/06/03 09:32:08;;;;;;;8.95;4.25;;;29.50;92.70;;;;;;4950463;29;20063;-74
2022/06/03 09:34:40;;;;;;;6.60;4.20;;;29.70;93.30;;;;;;4950531;29;20058;-75
2022/06/03 09:37:10;;;;;;;6.47;3.97;;;30.00;92.10;;;;;;4949535;29;20046;-74
2022/06/03 09:39:37;;;;;;;5.38;3.47;;;30.00;92.60;;;;;;4949375;29;20514;-71
2022/06/03 09:42:03;;;;;;;9.10;4.25;;;30.00;85.50;;;;;;4950193;29;20110;-72
2022/06/03 09:44:30;;;;;;;5.28;3.75;;;29.70;83.90;;;;;;4936266;29;20055;-74
2022/06/03 09:47:03;;;;;;;5.03;3.42;;;29.40;86.50;;;;;;4949747;29;20055;-74
2022/06/03 09:49:30;;;;;;;7.38;4.05;;;29.30;89.00;;;;;;4944297;29;20051;-75
2022/06/03 09:51:56;;;;;;;9.23;4.30;;;29.50;85.50;;;;;;4953291;29;20031;-74
2022/06/03 09:54:29;;;;;;;6.32;3.83;;;29.20;88.20;;;;;;4952923;29;20043;-75
2022/06/03 09:57:08;;;;;;;8.68;3.70;;;29.10;87.70;;;;;;4954139;29;20581;-74
2022/06/03 09:59:37;;;;;;;8.23;3.58;;;29.50;89.50;;;;;;4951292;29;20132;-74
2022/06/03 10:02:05;;;;;;;5.18;3.20;;;29.50;85.70;;;;;;4956740;28;20033;-75
2022/06/03 10:04:31;;;;;;;4.55;3.40;;;29.30;86.20;;;;;;4994284;28;20057;-74
2022/06/03 10:07:00;;;;;;;11.75;3.38;;;29.30;85.70;;;;;;4994349;28;20449;-74
2022/06/03 10:17:53;;;;;;;4.70;3.50;;;29.40;83.30;;;;;;4994355;28;20129;-74
2022/06/03 10:20:20;;;;;;;6.05;3.13;;;29.30;82.10;;;;;;4993982;28;20421;-75
2022/06/03 10:22:46;;;;;;;4.90;3.13;;;29.30;84.60;;;;;;4994423;28;20107;-74
2022/06/03 10:25:13;;;;;;;5.88;3.42;;;29.30;83.20;;;;;;4994192;28;20022;-74
2022/06/03 10:27:39;;;;;;;11.52;3.88;;;29.00;82.90;;;;;;4983894;28;20039;-73
2022/06/03 10:30:06;;;;;;;7.70;3.35;;;29.10;83.00;;;;;;4991243;28;20494;-75
2022/06/03 10:32:36;;;;;;;5.53;3.33;;;29.40;83.40;;;;;;4993524;28;20496;-73
2022/06/03 10:35:06;;;;;;;4.80;3.08;;;29.40;82.90;;;;;;4994047;28;20049;-73
2022/06/03 10:37:34;;;;;;;5.93;3.67;;;29.20;83.00;;;;;;4994044;28;20113;-74
2022/06/03 10:39:59;;;;;;;5.20;3.20;;;29.30;82.70;;;;;;4994052;28;20264;-74
2022/06/03 10:42:27;;;;;;;5.43;3.13;;;29.20;83.80;;;;;;4993720;28;20401;-74
2022/06/03 10:44:58;;;;;;;7.70;3.80;;;29.50;84.70;;;;;;4993910;28;20018;-73
2022/06/03 10:47:38;;;;;;;8.15;3.70;;;29.40;86.60;;;;;;4993754;28;20425;-74
2022/06/03 10:50:13;;;;;;;5.63;3.92;;;29.50;86.70;;;;;;4974761;28;20065;-75
2022/06/03 11:01:35;;;;;;;4.30;2.90;;;29.20;85.30;;;;;;4997624;28;20042;-74
2022/06/03 11:04:01;;;;;;;4.93;3.40;;;29.40;85.00;;;;;;5000119;28;20145;-73
2022/06/03 11:06:38;;;;;;;121.18;90.38;;;29.50;86.60;;;;;;4993224;28;20101;-74
2022/06/03 11:09:07;;;;;;;570.58;423.98;;;29.70;84.90;;;;;;4993011;28;20516;-75
2022/06/03 11:11:44;;;;;;;618.97;468.95;;;29.60;86.50;;;;;;4993175;28;20049;-74
2022/06/03 11:14:25;;;;;;;204.35;146.93;;;29.40;86.90;;;;;;4994493;28;20034;-73
2022/06/03 11:16:58;;;;;;;489.25;395.27;;;29.50;87.40;;;;;;4987842;28;20472;-73
2022/06/03 11:19:24;;;;;;;1013.90;707.60;;;29.60;86.90;;;;;;4985349;28;20073;-74
2022/06/03 11:22:13;;;;;;;28.45;25.08;;;29.60;85.20;;;;;;4987541;28;20488;-73
2022/06/03 11:24:40;;;;;;;5.57;3.63;;;29.40;82.80;;;;;;4990407;28;20117;-76
2022/06/03 11:27:10;;;;;;;5.78;3.53;;;29.60;82.40;;;;;;4992274;28;20021;-74
2022/06/03 11:29:39;;;;;;;7.07;3.10;;;29.50;80.80;;;;;;4991997;28;20023;-74
2022/06/03 11:32:08;;;;;;;5.13;3.63;;;29.60;80.50;;;;;;5003917;28;20055;-70
2022/06/03 11:34:44;;;;;;;6.55;3.45;;;29.70;82.80;;;;;;4992672;28;20046;-76
2022/06/03 11:37:32;;;;;;;5.07;3.03;;;29.90;82.80;;;;;;4980462;28;20392;-73
2022/06/03 11:40:07;;;;;;;11.02;3.72;;;30.10;80.80;;;;;;4977496;28;20597;-65
2022/06/03 11:42:46;;;;;;;6.47;3.17;;;30.10;82.30;;;;;;4967381;28;20043;-73
2022/06/03 11:45:30;;;;;;;9.27;3.50;;;30.00;80.40;;;;;;4968843;28;20070;-73
2022/06/03 11:47:55;;;;;;;4.30;2.88;;;29.90;80.50;;;;;;4979555;28;20118;-74
2022/06/03 11:50:25;;;;;;;4.35;2.90;;;29.60;79.00;;;;;;4975007;28;20125;-74
2022/06/03 11:52:52;;;;;;;5.60;3.05;;;29.60;77.30;;;;;;4974333;28;20034;-73
2022/06/03 11:55:21;;;;;;;7.38;2.92;;;29.40;74.70;;;;;;4981397;28;20133;-74
2022/06/03 11:57:56;;;;;;;6.10;3.42;;;29.70;74.80;;;;;;4979910;28;20412;-72
2022/06/03 12:00:24;;;;;;;5.75;3.42;;;29.80;75.30;;;;;;4968926;28;20190;-70
2022/06/03 12:03:07;;;;;;;6.07;2.92;;;29.70;76.20;;;;;;4969105;28;20114;-71
2022/06/03 12:05:40;;;;;;;3.45;2.80;;;30.00;75.20;;;;;;4969429;28;20039;-66
2022/06/03 12:08:16;;;;;;;3.38;2.95;;;30.00;75.60;;;;;;4965513;28;20063;-73
2022/06/03 12:10:57;;;;;;;6.07;3.03;;;29.90;76.20;;;;;;4965921;28;20039;-69
2022/06/03 12:13:31;;;;;;;4.63;3.00;;;30.00;74.40;;;;;;4968919;28;20042;-72
2022/06/03 12:15:57;;;;;;;3.65;2.80;;;30.10;75.60;;;;;;4971095;28;20034;-74
2022/06/03 12:18:34;;;;;;;4.97;3.22;;;30.10;74.60;;;;;;4985878;28;20026;-75
2022/06/03 12:21:10;;;;;;;4.47;2.67;;;29.90;74.00;;;;;;4983241;28;20032;-75
2022/06/03 12:23:36;;;;;;;5.22;2.83;;;29.90;75.80;;;;;;4992219;28;20466;-74
2022/06/03 12:26:17;;;;;;;7.53;2.83;;;29.70;76.30;;;;;;4991626;28;20093;-74
2022/06/03 12:28:47;;;;;;;3.63;2.63;;;29.70;74.80;;;;;;4992294;28;20038;-75
2022/06/03 12:31:19;;;;;;;3.70;2.65;;;30.00;74.80;;;;;;4979479;28;20118;-71
2022/06/03 12:34:09;;;;;;;12.25;2.83;;;30.10;74.60;;;;;;4992417;28;20088;-74
2022/06/03 12:36:56;;;;;;;4.40;3.28;;;30.00;75.70;;;;;;4992003;28;20105;-74
2022/06/03 12:39:58;;;;;;;13.00;4.53;;;30.40;75.80;;;;;;4992066;28;20027;-75
2022/06/03 12:42:28;;;;;;;5.38;2.95;;;30.40;75.00;;;;;;4931738;29;20732;-75
2022/06/03 12:44:56;;;;;;;3.75;2.67;;;30.50;76.60;;;;;;4950722;29;20063;-75
2022/06/03 12:47:34;;;;;;;4.03;2.80;;;30.30;73.00;;;;;;4951096;29;20062;-75
2022/06/03 12:50:08;;;;;;;3.92;2.47;;;30.40;73.50;;;;;;4951392;29;20061;-74
2022/06/03 12:52:43;;;;;;;4.45;2.67;;;30.30;73.90;;;;;;4943847;29;20066;-72
2022/06/03 12:55:14;;;;;;;4.93;2.90;;;30.20;73.80;;;;;;4951254;29;20516;-75
2022/06/03 12:58:02;;;;;;;3.13;2.50;;;30.20;72.90;;;;;;4936770;29;20118;-75
2022/06/03 13:00:52;;;;;;;5.10;2.72;;;29.80;72.30;;;;;;4931585;29;20036;-74
2022/06/03 13:03:23;;;;;;;2.47;2.25;;;30.10;72.80;;;;;;4944270;28;20046;-73
2022/06/03 13:05:51;;;;;;;4.80;2.90;;;30.00;73.10;;;;;;4950409;29;20498;-74
2022/06/03 13:08:29;;;;;;;3.60;2.72;;;30.30;71.60;;;;;;4949923;29;20032;-75
2022/06/03 13:11:03;;;;;;;3.28;2.28;;;30.20;71.40;;;;;;4950587;28;20085;-74
2022/06/03 13:13:34;;;;;;;2.63;2.10;;;30.30;71.70;;;;;;4950084;29;20051;-75
2022/06/03 13:16:19;;;;;;;;;;;30.10;69.90;;;;;;4950757;29;20042;-75
2022/06/03 13:18:49;;;;;;;3.35;2.25;;;30.10;71.20;;;;;;4983413;28;20275;-75
2022/06/03 13:21:18;;;;;;;5.00;2.55;;;30.00;69.90;;;;;;4990430;28;20464;-76
2022/06/03 13:23:46;;;;;;;2.38;2.05;;;30.10;69.70;;;;;;4992713;28;20015;-75
2022/06/03 13:26:21;;;;;;;4.35;2.53;;;30.20;71.80;;;;;;4994404;28;20018;-71
2022/06/03 13:28:54;;;;;;;4.78;2.30;;;30.30;69.90;;;;;;4995754;28;20034;-75
2022/06/03 13:31:44;;;;;;;3.88;2.47;;;30.40;71.10;;;;;;4995664;28;20030;-74
2022/06/03 13:34:10;;;;;;;4.18;2.50;;;30.20;70.10;;;;;;4995780;28;20050;-73
2022/06/03 13:36:46;;;;;;;2.92;2.38;;;30.00;69.70;;;;;;4994165;28;20061;-75
2022/06/03 13:39:34;;;;;;;3.05;2.17;;;30.00;69.70;;;;;;4991160;28;20045;-75
2022/06/03 13:45:03;;;;;;;4.18;2.00;;;30.10;70.10;;;;;;4968917;28;20047;-75
2022/06/03 13:47:45;;;;;;;6.63;2.38;;;30.10;70.60;;;;;;4991181;28;20037;-70
2022/06/03 13:50:14;;;;;;;6.15;2.10;;;30.20;70.80;;;;;;4990535;28;20154;-72
2022/06/03 13:52:46;;;;;;;3.92;2.50;;;30.00;70.50;;;;;;4993482;28;20112;-64
2022/06/03 13:55:21;;;;;;;5.25;2.17;;;30.00;69.70;;;;;;4987033;28;20034;-75
2022/06/03 13:57:58;;;;;;;2.20;1.90;;;30.10;70.50;;;;;;4992423;28;20018;-75
2022/06/03 14:00:50;;;;;;;2.65;1.90;;;30.20;69.70;;;;;;4989617;28;20038;-75
2022/06/03 14:03:26;;;;;;;5.38;2.70;;;30.30;71.10;;;;;;4972239;28;20486;-74
2022/06/03 14:05:54;;;;;;;6.22;2.60;;;30.30;69.80;;;;;;4973101;28;20091;-74
2022/06/03 14:08:24;;;;;;;6.50;2.70;;;30.50;71.00;;;;;;4972920;28;20030;-73
2022/06/03 14:10:57;;;;;;;2.97;2.08;;;30.40;70.70;;;;;;4967538;28;20055;-73
2022/06/03 14:13:33;;;;;;;3.28;2.30;;;30.60;72.10;;;;;;4970394;28;20049;-74
2022/06/03 14:16:15;;;;;;;3.70;2.38;;;30.50;69.90;;;;;;4970608;28;20069;-74